createdAt,value
2024-03-12T00:00:13.595Z,472.00
2024-03-12T00:01:13.758Z,472.00
2024-03-12T00:02:13.606Z,469.00
2024-03-12T00:03:13.613Z,466.00
2024-03-12T00:04:13.679Z,465.00
2024-03-12T00:05:13.645Z,463.00
2024-03-12T00:06:13.632Z,462.00
2024-03-12T00:07:13.667Z,464.00
2024-03-12T00:08:13.634Z,465.00
2024-03-12T00:09:13.628Z,465.00
2024-03-12T00:10:13.667Z,466.00
2024-03-12T00:11:13.647Z,465.00
2024-03-12T00:12:13.625Z,466.00
2024-03-12T00:13:13.666Z,463.00
2024-03-12T00:14:13.634Z,464.00
2024-03-12T00:15:13.625Z,466.00
2024-03-12T00:16:13.658Z,467.00
2024-03-12T00:17:13.662Z,464.00
2024-03-12T00:18:13.663Z,464.00
2024-03-12T00:19:13.737Z,465.00
2024-03-12T00:20:13.633Z,464.00
2024-03-12T00:21:13.641Z,465.00
2024-03-12T00:22:13.714Z,465.00
2024-03-12T00:23:13.650Z,467.00
2024-03-12T00:24:13.626Z,468.00
2024-03-12T00:25:13.621Z,469.00
2024-03-12T00:26:13.620Z,470.00
2024-03-12T00:27:13.625Z,471.00
2024-03-12T00:28:13.694Z,471.00
2024-03-12T00:29:13.659Z,471.00
2024-03-12T00:30:13.619Z,471.00
2024-03-12T00:31:13.644Z,470.00
2024-03-12T00:32:13.629Z,469.00
2024-03-12T00:33:13.877Z,468.00
2024-03-12T00:34:13.644Z,468.00
2024-03-12T00:35:13.608Z,469.00
2024-03-12T00:36:13.610Z,469.00
2024-03-12T00:37:13.655Z,466.00
2024-03-12T00:38:13.611Z,464.00
2024-03-12T00:39:13.613Z,464.00
2024-03-12T00:40:13.712Z,466.00
2024-03-12T00:41:13.603Z,464.00
2024-03-12T00:42:13.621Z,463.00
2024-03-12T00:43:13.758Z,466.00
2024-03-12T00:44:13.722Z,466.00
2024-03-12T00:45:13.713Z,462.00
2024-03-12T00:46:13.865Z,465.00
2024-03-12T00:47:13.777Z,465.00
2024-03-12T00:48:13.906Z,465.00
2024-03-12T00:49:13.881Z,464.00
2024-03-12T00:50:13.899Z,466.00
2024-03-12T00:51:13.885Z,466.00
2024-03-12T00:52:13.866Z,469.00
2024-03-12T00:53:13.873Z,471.00
2024-03-12T00:54:13.870Z,470.00
2024-03-12T00:55:13.880Z,468.00
2024-03-12T00:56:13.874Z,467.00
2024-03-12T00:57:13.856Z,467.00
2024-03-12T00:58:14.015Z,467.00
2024-03-12T00:59:13.857Z,468.00
2024-03-12T01:00:13.840Z,468.00
2024-03-12T01:01:13.895Z,469.00
2024-03-12T01:02:13.851Z,467.00
2024-03-12T01:03:13.838Z,465.00
2024-03-12T01:04:13.875Z,466.00
2024-03-12T01:05:13.839Z,466.00
2024-03-12T01:06:13.824Z,466.00
2024-03-12T01:07:13.836Z,466.00
2024-03-12T01:08:13.937Z,468.00
2024-03-12T01:09:13.873Z,466.00
2024-03-12T01:10:13.952Z,466.00
2024-03-12T01:11:13.990Z,465.00
2024-03-12T01:12:13.989Z,465.00
2024-03-12T01:13:14.059Z,465.00
2024-03-12T01:14:14.063Z,466.00
2024-03-12T01:15:14.074Z,466.00
2024-03-12T01:16:14.222Z,464.00
2024-03-12T01:17:14.143Z,466.00
2024-03-12T01:18:14.207Z,466.00
2024-03-12T01:19:14.213Z,465.00
2024-03-12T01:20:14.254Z,466.00
2024-03-12T01:21:14.305Z,465.00
2024-03-12T01:22:14.319Z,464.00
2024-03-12T01:23:14.329Z,462.00
2024-03-12T01:24:14.383Z,461.00
2024-03-12T01:25:14.434Z,463.00
2024-03-12T01:26:14.418Z,461.00
2024-03-12T01:27:14.459Z,460.00
2024-03-12T01:28:14.517Z,460.00
2024-03-12T01:29:14.535Z,461.00
2024-03-12T01:30:14.545Z,462.00
2024-03-12T01:31:14.570Z,461.00
2024-03-12T01:32:14.530Z,461.00
2024-03-12T01:33:14.564Z,461.00
2024-03-12T01:34:14.646Z,460.00
2024-03-12T01:35:14.546Z,459.00
2024-03-12T01:36:14.562Z,457.00
2024-03-12T01:37:14.624Z,459.00
2024-03-12T01:38:14.551Z,459.00
2024-03-12T01:39:14.548Z,460.00
2024-03-12T01:40:14.577Z,461.00
2024-03-12T01:41:14.579Z,461.00
2024-03-12T01:42:14.578Z,461.00
2024-03-12T01:43:14.836Z,459.00
2024-03-12T01:44:14.582Z,458.00
2024-03-12T01:45:14.579Z,459.00
2024-03-12T01:46:14.575Z,459.00
2024-03-12T01:47:14.555Z,459.00
2024-03-12T01:48:14.571Z,456.00
2024-03-12T01:49:14.564Z,457.00
2024-03-12T01:50:14.573Z,458.00
2024-03-12T01:51:14.551Z,461.00
2024-03-12T01:52:14.563Z,463.00
2024-03-12T01:53:14.587Z,466.00
2024-03-12T01:54:14.562Z,466.00
2024-03-12T01:55:14.561Z,466.00
2024-03-12T01:56:14.568Z,465.00
2024-03-12T01:57:14.546Z,464.00
2024-03-12T01:58:14.620Z,463.00
2024-03-12T01:59:14.553Z,464.00
2024-03-12T02:00:14.752Z,464.00
2024-03-12T02:01:14.560Z,464.00
2024-03-12T02:02:14.540Z,464.00
2024-03-12T02:03:14.547Z,465.00
2024-03-12T02:04:14.534Z,465.00
2024-03-12T02:05:14.551Z,464.00
2024-03-12T02:06:14.552Z,462.00
2024-03-12T02:07:14.633Z,463.00
2024-03-12T02:08:14.599Z,463.00
2024-03-12T02:09:14.646Z,463.00
2024-03-12T02:10:14.668Z,464.00
2024-03-12T02:11:14.718Z,466.00
2024-03-12T02:12:14.704Z,464.00
2024-03-12T02:13:14.797Z,463.00
2024-03-12T02:14:14.756Z,461.00
2024-03-12T02:15:14.776Z,462.00
2024-03-12T02:16:14.869Z,463.00
2024-03-12T02:17:14.837Z,463.00
2024-03-12T02:18:14.922Z,464.00
2024-03-12T02:19:14.882Z,464.00
2024-03-12T02:20:14.913Z,465.00
2024-03-12T02:21:14.941Z,466.00
2024-03-12T02:22:14.975Z,464.00
2024-03-12T02:23:15.026Z,464.00
2024-03-12T02:24:15.045Z,464.00
2024-03-12T02:25:15.094Z,462.00
2024-03-12T02:26:15.127Z,460.00
2024-03-12T02:27:15.167Z,462.00
2024-03-12T02:28:15.234Z,463.00
2024-03-12T02:29:15.254Z,463.00
2024-03-12T02:30:15.331Z,465.00
2024-03-12T02:31:15.377Z,466.00
2024-03-12T02:32:15.333Z,465.00
2024-03-12T02:33:15.474Z,466.00
2024-03-12T02:34:15.396Z,467.00
2024-03-12T02:35:15.419Z,466.00
2024-03-12T02:36:15.478Z,466.00
2024-03-12T02:37:15.494Z,466.00
2024-03-12T02:38:15.537Z,468.00
2024-03-12T02:39:15.723Z,466.00
2024-03-12T02:40:16.781Z,466.00
2024-03-12T02:41:15.662Z,466.00
2024-03-12T02:42:15.679Z,464.00
2024-03-12T02:43:15.764Z,466.00
2024-03-12T02:44:15.765Z,467.00
2024-03-12T02:45:16.901Z,467.00
2024-03-12T02:46:15.923Z,467.00
2024-03-12T02:47:15.895Z,467.00
2024-03-12T02:48:15.936Z,467.00
2024-03-12T02:49:15.982Z,468.00
2024-03-12T02:50:16.028Z,467.00
2024-03-12T02:51:16.041Z,467.00
2024-03-12T02:52:16.087Z,467.00
2024-03-12T02:53:16.154Z,466.00
2024-03-12T02:54:16.177Z,466.00
2024-03-12T02:55:16.302Z,467.00
2024-03-12T02:56:16.259Z,467.00
2024-03-12T02:57:16.337Z,465.00
2024-03-12T02:58:16.380Z,463.00
2024-03-12T02:59:16.385Z,462.00
2024-03-12T03:00:16.717Z,462.00
2024-03-12T03:01:16.530Z,463.00
2024-03-12T03:02:16.502Z,463.00
2024-03-12T03:03:16.547Z,465.00
2024-03-12T03:04:16.594Z,463.00
2024-03-12T03:05:16.682Z,461.00
2024-03-12T03:06:16.667Z,462.00
2024-03-12T03:07:16.707Z,461.00
2024-03-12T03:08:16.750Z,461.00
2024-03-12T03:09:16.770Z,463.00
2024-03-12T03:10:16.888Z,462.00
2024-03-12T03:11:16.873Z,462.00
2024-03-12T03:12:16.880Z,462.00
2024-03-12T03:13:16.940Z,461.00
2024-03-12T03:14:16.958Z,460.00
2024-03-12T03:15:17.000Z,458.00
2024-03-12T03:16:17.021Z,459.00
2024-03-12T03:17:17.063Z,459.00
2024-03-12T03:18:17.192Z,459.00
2024-03-12T03:19:17.138Z,460.00
2024-03-12T03:20:17.249Z,462.00
2024-03-12T03:21:17.199Z,462.00
2024-03-12T03:22:17.310Z,459.00
2024-03-12T03:23:17.229Z,460.00
2024-03-12T03:24:17.247Z,460.00
2024-03-12T03:25:17.337Z,459.00
2024-03-12T03:26:17.255Z,456.00
2024-03-12T03:27:17.298Z,458.00
2024-03-12T03:28:17.302Z,458.00
2024-03-12T03:29:17.346Z,458.00
2024-03-12T03:30:17.384Z,457.00
2024-03-12T03:31:17.475Z,456.00
2024-03-12T03:32:17.519Z,457.00
2024-03-12T03:33:17.601Z,461.00
2024-03-12T03:34:17.782Z,459.00
2024-03-12T03:35:17.721Z,458.00
2024-03-12T03:36:17.804Z,459.00
2024-03-12T03:37:17.885Z,457.00
2024-03-12T03:38:17.935Z,456.00
2024-03-12T03:39:18.023Z,456.00
2024-03-12T03:40:18.090Z,455.00
2024-03-12T03:41:18.098Z,457.00
2024-03-12T03:42:18.113Z,452.00
2024-03-12T03:43:18.140Z,450.00
2024-03-12T03:44:18.175Z,448.00
2024-03-12T03:45:18.184Z,448.00
2024-03-12T03:46:18.190Z,447.00
2024-03-12T03:47:18.242Z,446.00
2024-03-12T03:48:18.253Z,446.00
2024-03-12T03:49:18.287Z,447.00
2024-03-12T03:50:18.320Z,448.00
2024-03-12T03:51:18.384Z,448.00
2024-03-12T03:52:18.393Z,448.00
2024-03-12T03:53:18.429Z,447.00
2024-03-12T03:54:18.482Z,445.00
2024-03-12T03:55:18.595Z,443.00
2024-03-12T03:56:18.553Z,446.00
2024-03-12T03:57:18.601Z,447.00
2024-03-12T03:58:18.645Z,450.00
2024-03-12T03:59:18.708Z,451.00
2024-03-12T04:00:18.743Z,452.00
2024-03-12T04:01:18.846Z,455.00
2024-03-12T04:02:18.849Z,453.00
2024-03-12T04:03:18.918Z,455.00
2024-03-12T04:04:18.988Z,454.00
2024-03-12T04:05:19.026Z,455.00
2024-03-12T04:06:19.095Z,456.00
2024-03-12T04:07:19.171Z,456.00
2024-03-12T04:08:19.257Z,456.00
2024-03-12T04:09:19.303Z,455.00
2024-03-12T04:10:19.583Z,454.00
2024-03-12T04:11:19.500Z,454.00
2024-03-12T04:12:19.552Z,453.00
2024-03-12T04:13:19.636Z,453.00
2024-03-12T04:14:19.749Z,453.00
2024-03-12T04:15:19.733Z,451.00
2024-03-12T04:16:19.819Z,450.00
2024-03-12T04:17:19.884Z,449.00
2024-03-12T04:18:20.139Z,450.00
2024-03-12T04:19:20.090Z,448.00
2024-03-12T04:20:20.130Z,446.00
2024-03-12T04:21:20.199Z,446.00
2024-03-12T04:22:20.292Z,448.00
2024-03-12T04:23:20.367Z,447.00
2024-03-12T04:24:20.451Z,451.00
2024-03-12T04:25:20.529Z,449.00
2024-03-12T04:26:20.623Z,451.00
2024-03-12T04:27:20.736Z,450.00
2024-03-12T04:28:20.891Z,454.00
2024-03-12T04:29:20.882Z,454.00
2024-03-12T04:30:20.957Z,453.00
2024-03-12T04:31:21.035Z,451.00
2024-03-12T04:32:21.136Z,451.00
2024-03-12T04:33:21.237Z,451.00
2024-03-12T04:34:21.290Z,453.00
2024-03-12T04:35:28.584Z,458.00
2024-03-12T04:36:28.626Z,463.00
2024-03-12T04:37:28.602Z,466.00
2024-03-12T04:38:28.601Z,467.00
2024-03-12T04:39:28.644Z,465.00
2024-03-12T04:40:28.684Z,466.00
2024-03-12T04:41:28.616Z,464.00
2024-03-12T04:42:28.700Z,463.00
2024-03-12T04:43:28.640Z,462.00
2024-03-12T04:44:28.656Z,460.00
2024-03-12T04:45:28.684Z,458.00
2024-03-12T04:46:28.662Z,459.00
2024-03-12T04:47:28.739Z,458.00
2024-03-12T04:48:28.790Z,458.00
2024-03-12T04:49:28.699Z,458.00
2024-03-12T04:50:28.698Z,457.00
2024-03-12T04:51:28.718Z,457.00
2024-03-12T04:52:28.723Z,456.00
2024-03-12T04:53:28.725Z,454.00
2024-03-12T04:54:28.764Z,453.00
2024-03-12T04:55:28.735Z,454.00
2024-03-12T04:56:28.738Z,450.00
2024-03-12T04:57:28.766Z,451.00
2024-03-12T04:58:28.749Z,451.00
2024-03-12T04:59:28.778Z,452.00
2024-03-12T05:00:32.392Z,452.00
2024-03-12T05:01:28.855Z,452.00
2024-03-12T05:02:28.787Z,451.00
2024-03-12T05:03:28.812Z,455.00
2024-03-12T05:04:28.823Z,455.00
2024-03-12T05:05:28.795Z,457.00
2024-03-12T05:06:28.797Z,458.00
2024-03-12T05:07:28.788Z,458.00
2024-03-12T05:08:28.840Z,461.00
2024-03-12T05:09:28.824Z,462.00
2024-03-12T05:10:28.804Z,462.00
2024-03-12T05:11:28.828Z,460.00
2024-03-12T05:12:28.831Z,460.00
2024-03-12T05:13:28.826Z,460.00
2024-03-12T05:14:28.838Z,461.00
2024-03-12T05:15:28.934Z,464.00
2024-03-12T05:16:28.869Z,463.00
2024-03-12T05:17:28.870Z,460.00
2024-03-12T05:18:28.899Z,461.00
2024-03-12T05:19:28.866Z,458.00
2024-03-12T05:20:28.923Z,459.00
2024-03-12T05:21:31.471Z,457.00
2024-03-12T05:22:28.891Z,458.00
2024-03-12T05:23:28.890Z,458.00
2024-03-12T05:24:28.921Z,453.00
2024-03-12T05:25:28.898Z,446.00
2024-03-12T05:26:28.906Z,447.00
2024-03-12T05:27:28.936Z,446.00
2024-03-12T05:28:28.931Z,446.00
2024-03-12T05:29:28.925Z,447.00
2024-03-12T05:30:28.945Z,446.00
2024-03-12T05:31:28.936Z,447.00
2024-03-12T05:32:28.952Z,448.00
2024-03-12T05:33:28.961Z,450.00
2024-03-12T05:34:28.966Z,450.00
2024-03-12T05:35:28.960Z,450.00
2024-03-12T05:36:28.966Z,450.00
2024-03-12T05:37:28.981Z,448.00
2024-03-12T05:38:28.960Z,448.00
2024-03-12T05:39:29.032Z,447.00
2024-03-12T05:40:28.968Z,447.00
2024-03-12T05:41:28.974Z,448.00
2024-03-12T05:42:28.993Z,447.00
2024-03-12T05:43:28.987Z,446.00
2024-03-12T05:44:28.987Z,444.00
2024-03-12T05:45:29.083Z,443.00
2024-03-12T05:46:29.091Z,445.00
2024-03-12T05:47:29.029Z,444.00
2024-03-12T05:48:29.026Z,445.00
2024-03-12T05:49:29.038Z,445.00
2024-03-12T05:50:29.039Z,447.00
2024-03-12T05:51:29.096Z,446.00
2024-03-12T05:52:29.176Z,448.00
2024-03-12T05:53:29.055Z,450.00
2024-03-12T05:54:29.080Z,449.00
2024-03-12T05:55:29.062Z,448.00
2024-03-12T05:56:29.068Z,448.00
2024-03-12T05:57:29.094Z,447.00
2024-03-12T05:58:29.079Z,445.00
2024-03-12T05:59:29.107Z,446.00
2024-03-12T06:00:29.223Z,445.00
2024-03-12T06:01:30.173Z,445.00
2024-03-12T06:02:29.148Z,444.00
2024-03-12T06:03:29.150Z,444.00
2024-03-12T06:04:29.142Z,447.00
2024-03-12T06:05:29.161Z,448.00
2024-03-12T06:06:29.200Z,445.00
2024-03-12T06:07:29.208Z,444.00
2024-03-12T06:08:29.217Z,445.00
2024-03-12T06:09:29.196Z,446.00
2024-03-12T06:10:29.186Z,446.00
2024-03-12T06:11:29.261Z,448.00
2024-03-12T06:12:29.202Z,450.00
2024-03-12T06:13:29.177Z,450.00
2024-03-12T06:14:29.195Z,450.00
2024-03-12T06:15:29.214Z,449.00
2024-03-12T06:16:29.188Z,447.00
2024-03-12T06:17:29.191Z,445.00
2024-03-12T06:18:29.341Z,444.00
2024-03-12T06:19:29.217Z,444.00
2024-03-12T06:20:29.195Z,446.00
2024-03-12T06:21:29.235Z,446.00
2024-03-12T06:22:29.209Z,446.00
2024-03-12T06:23:29.215Z,446.00
2024-03-12T06:24:29.282Z,448.00
2024-03-12T06:25:29.252Z,450.00
2024-03-12T06:26:29.253Z,453.00
2024-03-12T06:27:29.284Z,454.00
2024-03-12T06:28:29.320Z,454.00
2024-03-12T06:29:29.253Z,454.00
2024-03-12T06:30:29.322Z,454.00
2024-03-12T06:31:29.271Z,454.00
2024-03-12T06:32:29.315Z,454.00
2024-03-12T06:33:29.331Z,503.00
2024-03-12T06:34:29.342Z,497.00
2024-03-12T06:35:29.343Z,501.00
2024-03-12T06:36:29.355Z,552.00
2024-03-12T06:37:29.328Z,604.00
2024-03-12T06:38:29.327Z,628.00
2024-03-12T06:39:29.377Z,684.00
2024-03-12T06:40:29.355Z,693.00
2024-03-12T06:41:29.342Z,715.00
2024-03-12T06:42:29.359Z,775.00
2024-03-12T06:43:29.333Z,774.00
2024-03-12T06:44:29.323Z,833.00
2024-03-12T06:45:29.416Z,830.00
2024-03-12T06:46:29.326Z,836.00
2024-03-12T06:47:29.331Z,842.00
2024-03-12T06:48:29.324Z,852.00
2024-03-12T06:49:29.306Z,859.00
2024-03-12T06:50:29.316Z,872.00
2024-03-12T06:51:29.343Z,876.00
2024-03-12T06:52:29.296Z,885.00
2024-03-12T06:53:29.292Z,890.00
2024-03-12T06:54:29.355Z,896.00
2024-03-12T06:55:29.365Z,921.00
2024-03-12T06:56:29.324Z,998.00
2024-03-12T06:57:29.326Z,998.00
2024-03-12T06:58:29.383Z,1004.00
2024-03-12T06:59:29.502Z,1057.00
2024-03-12T07:00:29.329Z,1064.00
2024-03-12T07:01:29.343Z,1068.00
2024-03-12T07:02:29.297Z,1073.00
2024-03-12T07:03:29.345Z,1085.00
2024-03-12T07:04:29.313Z,1101.00
2024-03-12T07:05:29.276Z,1128.00
2024-03-12T07:06:29.300Z,1151.00
2024-03-12T07:07:29.258Z,1165.00
2024-03-12T07:08:29.259Z,1184.00
2024-03-12T07:09:29.252Z,1208.00
2024-03-12T07:10:29.275Z,1247.00
2024-03-12T07:11:29.294Z,1284.00
2024-03-12T07:12:29.281Z,1294.00
2024-03-12T07:13:29.279Z,1295.00
2024-03-12T07:14:29.362Z,1297.00
2024-03-12T07:15:29.501Z,1308.00
2024-03-12T07:16:29.478Z,1318.00
2024-03-12T07:17:31.629Z,1327.00
2024-03-12T07:18:29.615Z,1337.00
2024-03-12T07:19:29.648Z,1343.00
2024-03-12T07:20:29.687Z,1360.00
2024-03-12T07:21:29.702Z,1367.00
2024-03-12T07:22:29.670Z,1374.00
2024-03-12T07:23:29.659Z,1381.00
2024-03-12T07:24:29.686Z,1388.00
2024-03-12T07:25:29.655Z,1401.00
2024-03-12T07:26:29.640Z,1410.00
2024-03-12T07:27:29.684Z,1415.00
2024-03-12T07:28:29.670Z,1423.00
2024-03-12T07:29:29.616Z,1434.00
2024-03-12T07:30:29.656Z,1442.00
2024-03-12T07:31:29.587Z,1458.00
2024-03-12T07:32:29.677Z,1482.00
2024-03-12T07:33:29.701Z,1501.00
2024-03-12T07:34:29.770Z,1509.00
2024-03-12T07:35:29.738Z,1519.00
2024-03-12T07:36:29.788Z,1530.00
2024-03-12T07:37:29.788Z,1538.00
2024-03-12T07:38:29.834Z,1531.00
2024-03-12T07:39:29.891Z,1504.00
2024-03-12T07:40:29.908Z,1492.00
2024-03-12T07:41:29.884Z,1479.00
2024-03-12T07:42:29.909Z,1427.00
2024-03-12T07:43:29.859Z,1418.00
2024-03-12T07:44:29.983Z,1406.00
2024-03-12T07:45:29.886Z,1362.00
2024-03-12T07:46:29.839Z,1337.00
2024-03-12T07:47:29.911Z,1299.00
2024-03-12T07:48:29.842Z,1236.00
2024-03-12T07:49:29.820Z,1259.00
2024-03-12T07:50:29.978Z,1254.00
2024-03-12T07:51:29.844Z,1227.00
2024-03-12T07:52:29.785Z,1189.00
2024-03-12T07:53:29.772Z,1170.00
2024-03-12T07:54:29.777Z,1146.00
2024-03-12T07:55:29.750Z,1133.00
2024-03-12T07:56:29.766Z,1114.00
2024-03-12T07:57:29.755Z,1102.00
2024-03-12T07:58:29.746Z,1083.00
2024-03-12T07:59:29.792Z,1051.00
2024-03-12T08:00:29.767Z,1034.00
2024-03-12T08:01:29.714Z,1017.00
2024-03-12T08:02:29.713Z,1003.00
2024-03-12T08:03:29.970Z,995.00
2024-03-12T08:04:29.824Z,976.00
2024-03-12T08:05:33.018Z,945.00
2024-03-12T08:06:30.970Z,929.00
2024-03-12T08:07:29.866Z,910.00
2024-03-12T08:08:29.849Z,900.00
2024-03-12T08:09:30.018Z,889.00
2024-03-12T08:10:29.838Z,876.00
2024-03-12T08:11:29.877Z,863.00
2024-03-12T08:12:29.859Z,845.00
2024-03-12T08:13:29.864Z,824.00
2024-03-12T08:14:29.830Z,818.00
2024-03-12T08:15:29.895Z,811.00
2024-03-12T08:16:29.941Z,797.00
2024-03-12T08:17:30.279Z,787.00
2024-03-12T08:18:30.122Z,776.00
2024-03-12T08:19:30.116Z,765.00
2024-03-12T08:20:30.158Z,753.00
2024-03-12T08:21:30.306Z,747.00
2024-03-12T08:22:30.291Z,739.00
2024-03-12T08:23:30.379Z,665.00
2024-03-12T08:24:30.427Z,654.00
2024-03-12T08:25:33.226Z,642.00
2024-03-12T08:26:31.483Z,636.00
2024-03-12T08:27:30.471Z,626.00
2024-03-12T08:28:30.435Z,613.00
2024-03-12T08:29:30.436Z,601.00
2024-03-12T08:30:33.397Z,591.00
2024-03-12T08:31:35.671Z,582.00
2024-03-12T08:32:31.779Z,568.00
2024-03-12T08:33:30.475Z,560.00
2024-03-12T08:34:30.431Z,554.00
2024-03-12T08:35:30.405Z,556.00
2024-03-12T08:36:30.472Z,566.00
2024-03-12T08:37:30.409Z,574.00
2024-03-12T08:38:30.420Z,612.00
2024-03-12T08:39:30.416Z,630.00
2024-03-12T08:40:30.477Z,635.00
2024-03-12T08:41:30.406Z,601.00
2024-03-12T08:42:30.485Z,585.00
2024-03-12T08:43:30.463Z,585.00
2024-03-12T08:44:30.466Z,603.00
2024-03-12T08:45:30.442Z,607.00
2024-03-12T08:46:30.422Z,600.00
2024-03-12T08:47:30.453Z,592.00
2024-03-12T08:48:30.479Z,585.00
2024-03-12T08:49:30.429Z,572.00
2024-03-12T08:50:30.476Z,558.00
2024-03-12T08:51:30.536Z,555.00
2024-03-12T08:52:30.441Z,552.00
2024-03-12T08:53:30.418Z,558.00
2024-03-12T08:54:30.509Z,561.00
2024-03-12T08:55:30.506Z,556.00
2024-03-12T08:56:30.445Z,550.00
2024-03-12T08:57:30.470Z,545.00
2024-03-12T08:58:30.447Z,542.00
2024-03-12T08:59:30.465Z,534.00
2024-03-12T09:00:30.683Z,530.00
2024-03-12T09:01:30.545Z,526.00
2024-03-12T09:02:30.483Z,531.00
2024-03-12T09:03:30.570Z,532.00
2024-03-12T09:04:30.565Z,533.00
2024-03-12T09:05:30.532Z,528.00
2024-03-12T09:06:30.613Z,524.00
2024-03-12T09:07:30.605Z,526.00
2024-03-12T09:08:30.657Z,568.00
2024-03-12T09:09:30.747Z,571.00
2024-03-12T09:10:30.760Z,565.00
2024-03-12T09:11:30.868Z,564.00
2024-03-12T09:12:30.875Z,563.00
2024-03-12T09:13:30.741Z,568.00
2024-03-12T09:14:30.747Z,567.00
2024-03-12T09:15:30.769Z,564.00
2024-03-12T09:16:30.762Z,563.00
2024-03-12T09:17:30.773Z,567.00
2024-03-12T09:18:30.806Z,568.00
2024-03-12T09:19:30.772Z,567.00
2024-03-12T09:20:30.810Z,562.00
2024-03-12T09:21:30.814Z,583.00
2024-03-12T09:22:30.801Z,598.00
2024-03-12T09:23:31.594Z,612.00
2024-03-12T09:24:30.850Z,624.00
2024-03-12T09:25:30.792Z,631.00
2024-03-12T09:26:31.108Z,637.00
2024-03-12T09:27:30.829Z,640.00
2024-03-12T09:28:30.798Z,638.00
2024-03-12T09:29:30.827Z,640.00
2024-03-12T09:30:30.878Z,659.00
2024-03-12T09:31:30.817Z,675.00
2024-03-12T09:32:30.831Z,658.00
2024-03-12T09:33:30.814Z,605.00
2024-03-12T09:34:30.797Z,609.00
2024-03-12T09:35:30.802Z,602.00
2024-03-12T09:36:30.818Z,592.00
2024-03-12T09:37:30.793Z,579.00
2024-03-12T09:38:30.868Z,567.00
2024-03-12T09:39:30.965Z,534.00
2024-03-12T09:40:31.045Z,531.00
2024-03-12T09:41:30.962Z,525.00
2024-03-12T09:42:31.014Z,526.00
2024-03-12T09:43:30.961Z,521.00
2024-03-12T09:44:30.962Z,518.00
2024-03-12T09:45:31.071Z,516.00
2024-03-12T09:46:30.933Z,519.00
2024-03-12T09:47:30.949Z,518.00
2024-03-12T09:48:30.969Z,522.00
2024-03-12T09:49:30.965Z,570.00
2024-03-12T09:50:30.939Z,574.00
2024-03-12T09:51:30.947Z,583.00
2024-03-12T09:52:30.958Z,607.00
2024-03-12T09:53:30.933Z,623.00
2024-03-12T09:54:30.949Z,639.00
2024-03-12T09:55:30.918Z,657.00
2024-03-12T09:56:30.898Z,679.00
2024-03-12T09:57:30.933Z,696.00
2024-03-12T09:58:30.898Z,716.00
2024-03-12T09:59:31.948Z,727.00
2024-03-12T10:00:30.949Z,743.00
2024-03-12T10:01:30.853Z,753.00
2024-03-12T10:02:30.888Z,766.00
2024-03-12T10:03:30.920Z,779.00
2024-03-12T10:04:30.841Z,800.00
2024-03-12T10:05:30.824Z,816.00
2024-03-12T10:06:30.941Z,823.00
2024-03-12T10:07:30.810Z,829.00
2024-03-12T10:08:30.779Z,837.00
2024-03-12T10:09:30.813Z,870.00
2024-03-12T10:10:30.745Z,919.00
2024-03-12T10:11:30.736Z,915.00
2024-03-12T10:12:30.712Z,912.00
2024-03-12T10:13:30.725Z,908.00
2024-03-12T10:14:30.677Z,906.00
2024-03-12T10:15:30.682Z,909.00
2024-03-12T10:16:30.673Z,910.00
2024-03-12T10:17:30.629Z,914.00
2024-03-12T10:18:30.673Z,911.00
2024-03-12T10:19:30.598Z,908.00
2024-03-12T10:20:30.584Z,913.00
2024-03-12T10:21:30.638Z,911.00
2024-03-12T10:22:30.544Z,938.00
2024-03-12T10:23:30.525Z,944.00
2024-03-12T10:24:30.633Z,947.00
2024-03-12T10:25:30.628Z,944.00
2024-03-12T10:26:30.691Z,940.00
2024-03-12T10:27:30.773Z,938.00
2024-03-12T10:28:30.812Z,942.00
2024-03-12T10:29:30.859Z,940.00
2024-03-12T10:30:30.890Z,953.00
2024-03-12T10:31:30.922Z,955.00
2024-03-12T10:32:31.119Z,949.00
2024-03-12T10:33:31.060Z,945.00
2024-03-12T10:34:31.007Z,944.00
2024-03-12T10:35:30.976Z,935.00
2024-03-12T10:36:31.015Z,934.00
2024-03-12T10:37:30.995Z,931.00
2024-03-12T10:38:30.933Z,943.00
2024-03-12T10:39:30.978Z,955.00
2024-03-12T10:40:31.017Z,955.00
2024-03-12T10:41:30.905Z,954.00
2024-03-12T10:42:30.918Z,949.00
2024-03-12T10:43:30.884Z,948.00
2024-03-12T10:44:30.882Z,954.00
2024-03-12T10:45:31.020Z,952.00
2024-03-12T10:46:30.976Z,950.00
2024-03-12T10:47:31.062Z,951.00
2024-03-12T10:48:31.066Z,958.00
2024-03-12T10:49:31.098Z,964.00
2024-03-12T10:50:31.140Z,970.00
2024-03-12T10:51:31.175Z,977.00
2024-03-12T10:52:31.157Z,991.00
2024-03-12T10:53:32.480Z,1004.00
2024-03-12T10:54:34.416Z,1047.00
2024-03-12T10:55:32.243Z,1049.00
2024-03-12T10:56:31.200Z,1049.00
2024-03-12T10:57:31.195Z,1047.00
2024-03-12T10:58:31.164Z,1044.00
2024-03-12T10:59:31.138Z,1039.00
2024-03-12T11:00:31.164Z,1033.00
2024-03-12T11:01:31.296Z,1031.00
2024-03-12T11:02:31.107Z,1026.00
2024-03-12T11:03:31.126Z,1020.00
2024-03-12T11:04:31.070Z,1013.00
2024-03-12T11:05:31.031Z,1003.00
2024-03-12T11:06:31.136Z,1000.00
2024-03-12T11:07:31.007Z,992.00
2024-03-12T11:08:31.006Z,989.00
2024-03-12T11:09:31.043Z,980.00
2024-03-12T11:10:31.007Z,977.00
2024-03-12T11:11:31.034Z,976.00
2024-03-12T11:12:30.985Z,976.00
2024-03-12T11:13:30.960Z,975.00
2024-03-12T11:14:30.988Z,972.00
2024-03-12T11:15:31.032Z,969.00
2024-03-12T11:16:31.039Z,962.00
2024-03-12T11:17:31.051Z,958.00
2024-03-12T11:18:31.096Z,957.00
2024-03-12T11:19:31.153Z,955.00
2024-03-12T11:20:31.118Z,951.00
2024-03-12T11:21:31.111Z,949.00
2024-03-12T11:22:31.152Z,945.00
2024-03-12T11:23:31.170Z,938.00
2024-03-12T11:24:31.594Z,933.00
2024-03-12T11:25:31.139Z,929.00
2024-03-12T11:27:31.175Z,921.00
2024-03-12T11:28:31.105Z,919.00
2024-03-12T11:29:31.083Z,916.00
2024-03-12T11:30:31.103Z,912.00
2024-03-12T11:31:31.078Z,909.00
2024-03-12T11:32:31.078Z,907.00
2024-03-12T11:33:31.058Z,899.00
2024-03-12T11:34:31.038Z,896.00
2024-03-12T11:35:31.003Z,896.00
2024-03-12T11:36:31.092Z,894.00
2024-03-12T11:37:30.994Z,890.00
2024-03-12T11:38:31.136Z,883.00
2024-03-12T11:39:31.171Z,876.00
2024-03-12T11:40:30.957Z,869.00
2024-03-12T11:41:30.990Z,863.00
2024-03-12T11:42:31.011Z,857.00
2024-03-12T11:43:30.924Z,853.00
2024-03-12T11:44:30.926Z,851.00
2024-03-12T11:45:30.901Z,846.00
2024-03-12T11:46:30.886Z,843.00
2024-03-12T11:47:30.952Z,839.00
2024-03-12T11:48:30.864Z,839.00
2024-03-12T11:49:30.832Z,834.00
2024-03-12T11:50:30.820Z,831.00
2024-03-12T11:51:30.868Z,823.00
2024-03-12T11:52:30.884Z,820.00
2024-03-12T11:53:31.034Z,815.00
2024-03-12T11:54:30.957Z,814.00
2024-03-12T11:55:30.969Z,810.00
2024-03-12T11:56:30.984Z,807.00
2024-03-12T11:57:31.368Z,806.00
2024-03-12T11:58:31.092Z,798.00
2024-03-12T11:59:31.102Z,790.00
2024-03-12T12:00:31.277Z,785.00
2024-03-12T12:01:31.288Z,783.00
2024-03-12T12:02:31.157Z,778.00
2024-03-12T12:03:31.214Z,774.00
2024-03-12T12:04:31.229Z,775.00
2024-03-12T12:05:31.237Z,774.00
2024-03-12T12:06:31.325Z,774.00
2024-03-12T12:07:31.371Z,772.00
2024-03-12T12:08:31.493Z,768.00
2024-03-12T12:09:31.387Z,768.00
2024-03-12T12:10:31.385Z,766.00
2024-03-12T12:11:31.421Z,768.00
2024-03-12T12:12:31.419Z,768.00
2024-03-12T12:13:31.424Z,766.00
2024-03-12T12:14:31.398Z,766.00
2024-03-12T12:15:31.412Z,763.00
2024-03-12T12:16:31.381Z,762.00
2024-03-12T12:17:31.380Z,761.00
2024-03-12T12:18:31.357Z,760.00
2024-03-12T12:19:35.547Z,757.00
2024-03-12T12:20:32.297Z,754.00
2024-03-12T12:21:31.348Z,753.00
2024-03-12T12:22:31.261Z,752.00
2024-03-12T12:23:31.258Z,752.00
2024-03-12T12:24:31.290Z,749.00
2024-03-12T12:25:31.274Z,750.00
2024-03-12T12:26:31.238Z,748.00
2024-03-12T12:27:31.234Z,746.00